Time;durP1;ratioP1;P1;durP2;ratioP2;P2;SDS_P1;SDS_P2;PMS_P1;PMS_P2;Temp;Humidity;BMP_temperature;BMP_pressure;BME280_temperature;BME280_humidity;BME280_pressure;Samples;Min_cycle;Max_cycle;Signal;HPM_P1;HPM_P2
2022/05/18 00:01:13;;;;;;;1.20;1.10;;;;;;;9.17;50.48;99504.75;1720838;82;21030;-66
2022/05/18 00:03:44;;;;;;;3.98;1.10;;;;;;;9.13;50.42;99512.48;1738422;82;21027;-66
2022/05/18 00:06:12;;;;;;;3.10;1.40;;;;;;;9.09;50.65;99515.38;1744529;81;20924;-67
2022/05/18 00:08:39;;;;;;;1.27;1.07;;;;;;;9.07;50.86;99513.45;1747670;81;21264;-64
2022/05/18 00:11:15;;;;;;;1.40;1.00;;;;;;;9.04;51.34;99518.50;1727599;80;20962;-65
2022/05/18 00:13:44;;;;;;;1.12;1.10;;;;;;;9.00;51.51;99516.84;1738135;82;21006;-66
2022/05/18 00:16:10;;;;;;;4.58;1.20;;;;;;;8.96;51.71;99523.75;1727939;80;21589;-67
2022/05/18 00:18:37;;;;;;;4.42;1.00;;;;;;;8.92;52.03;99521.25;1748018;82;21022;-64
2022/05/18 00:21:05;;;;;;;0.95;0.95;;;;;;;8.90;52.36;99521.22;1735282;80;21244;-66
2022/05/18 00:23:32;;;;;;;1.07;1.07;;;;;;;8.87;52.54;99525.21;1748811;81;20986;-66
2022/05/18 00:25:59;;;;;;;1.90;1.47;;;;;;;8.85;52.69;99529.17;1728823;80;20963;-66
2022/05/18 00:28:26;;;;;;;1.17;1.10;;;;;;;8.82;52.81;99525.12;1738383;82;20999;-66
2022/05/18 00:30:52;;;;;;;3.45;1.42;;;;;;;8.81;52.93;99534.22;1749345;81;20975;-67
2022/05/18 00:33:19;;;;;;;1.57;1.22;;;;;;;8.76;53.31;99528.77;1749583;82;21064;-65
2022/05/18 00:35:46;;;;;;;2.83;1.20;;;;;;;8.70;53.65;99532.41;1727963;80;20971;-69
2022/05/18 00:38:13;;;;;;;1.25;1.20;;;;;;;8.64;53.90;99530.16;1696674;83;21476;-65
2022/05/18 00:40:45;;;;;;;2.55;0.90;;;;;;;8.58;54.41;99536.50;1719787;83;21134;-66
2022/05/18 00:43:19;;;;;;;1.57;1.27;;;;;;;8.57;54.72;99532.71;1744873;81;21542;-66
2022/05/18 00:45:46;;;;;;;1.25;1.15;;;;;;;8.54;54.80;99537.20;1717679;82;21931;-66
2022/05/18 00:48:13;;;;;;;1.02;1.00;;;;;;;8.53;55.11;99531.57;1711363;82;21013;-66
2022/05/18 00:50:40;;;;;;;2.08;1.30;;;;;;;8.51;55.60;99541.70;1754975;81;21543;-66
2022/05/18 00:53:17;;;;;;;5.37;1.22;;;;;;;8.47;55.77;99534.68;1716883;82;21090;-65
2022/05/18 00:55:48;;;;;;;1.70;1.00;;;;;;;8.43;56.00;99533.53;1741994;81;21028;-66
2022/05/18 00:58:30;;;;;;;1.32;1.22;;;;;;;8.38;56.29;99540.14;1769555;81;21761;-66
2022/05/18 01:00:56;;;;;;;19.12;10.08;;;;;;;8.34;56.77;99536.84;1754799;81;20955;-67
2022/05/18 01:03:30;;;;;;;20.92;14.13;;;;;;;8.27;57.30;99532.39;1748259;79;20986;-67
2022/05/18 01:06:20;;;;;;;29.00;20.17;;;;;;;8.23;57.78;99543.30;1715578;82;21515;-67
2022/05/18 01:09:02;;;;;;;25.65;18.32;;;;;;;8.18;58.14;99543.20;1730635;82;21592;-67
2022/05/18 01:11:33;;;;;;;21.48;14.33;;;;;;;8.16;58.53;99541.80;1712800;82;20965;-68
2022/05/18 01:14:00;;;;;;;27.62;15.70;;;;;;;8.12;59.14;99548.16;1754926;81;21496;-65
2022/05/18 01:16:26;;;;;;;20.40;14.18;;;;;;;8.10;59.62;99548.94;1772046;80;21001;-67
2022/05/18 01:18:54;;;;;;;20.70;12.85;;;;;;;8.08;60.20;99548.34;1749299;80;20941;-68
2022/05/18 01:21:20;;;;;;;17.12;11.97;;;;;;;8.05;60.73;99539.98;1733667;82;20954;-66
2022/05/18 01:24:04;;;;;;;14.60;10.25;;;;;;;7.99;61.24;99545.76;1697663;82;21075;-67
2022/05/18 01:26:44;;;;;;;17.82;12.58;;;;;;;7.98;61.85;99548.66;1752582;80;20929;-66
2022/05/18 01:29:11;;;;;;;18.92;13.75;;;;;;;7.95;62.03;99547.28;1738700;82;20972;-66
2022/05/18 01:31:50;;;;;;;26.23;16.62;;;;;;;7.94;62.23;99548.84;1739222;81;22203;-66
2022/05/18 01:34:21;;;;;;;33.50;23.83;;;;;;;7.92;62.56;99556.28;1729586;81;21041;-65
2022/05/18 01:36:49;;;;;;;40.83;25.85;;;;;;;7.88;62.86;99552.75;1741874;82;20997;-66
2022/05/18 01:39:34;;;;;;;63.70;38.80;;;;;;;7.85;62.87;99557.77;1725221;82;21072;-66
2022/05/18 01:42:09;;;;;;;79.55;46.25;;;;;;;7.80;63.59;99558.48;1745497;81;21014;-65
2022/05/18 01:44:39;;;;;;;86.05;49.98;;;;;;;7.76;63.65;99560.52;1753328;81;21113;-64
2022/05/18 01:47:07;;;;;;;110.12;63.60;;;;;;;7.74;63.90;99563.95;1754479;81;21014;-65
2022/05/18 01:49:35;;;;;;;121.62;71.35;;;;;;;7.71;64.22;99563.91;1730919;81;21284;-65
2022/05/18 01:52:04;;;;;;;138.28;81.53;;;;;;;7.69;64.71;99561.98;1725879;81;20992;-65
2022/05/18 01:54:41;;;;;;;140.77;87.55;;;;;;;7.67;64.91;99560.59;1738363;81;21539;-65
2022/05/18 01:57:08;;;;;;;138.32;87.85;;;;;;;7.62;65.63;99564.50;1763460;80;21501;-68
2022/05/18 01:59:36;;;;;;;127.25;77.25;;;;;;;7.58;65.83;99557.98;1739462;82;21008;-68
2022/05/18 02:02:04;;;;;;;116.28;75.03;;;;;;;7.55;66.11;99562.45;1714497;82;21798;-65
2022/05/18 02:04:32;;;;;;;120.40;69.67;;;;;;;7.52;66.83;99573.11;1735075;82;21003;-67
2022/05/18 02:07:00;;;;;;;110.57;64.95;;;;;;;7.48;67.04;99557.23;1762039;80;21037;-64
2022/05/18 02:09:27;;;;;;;111.03;67.10;;;;;;;7.46;67.38;99571.35;1731641;82;21008;-66
2022/05/18 02:11:54;;;;;;;105.85;63.13;;;;;;;7.42;67.48;99564.32;1739658;82;21057;-66
2022/05/18 02:14:22;;;;;;;85.90;56.98;;;;;;;7.40;67.79;99573.09;1750084;81;21036;-66
2022/05/18 02:16:49;;;;;;;90.85;54.98;;;;;;;7.36;68.26;99573.79;1770750;80;21007;-64
2022/05/18 02:19:16;;;;;;;83.27;50.35;;;;;;;7.33;68.41;99578.27;1768312;80;21026;-64
2022/05/18 02:21:44;;;;;;;79.25;41.48;;;;;;;7.27;68.91;99566.63;1747103;80;21500;-68
2022/05/18 02:24:11;;;;;;;66.37;40.08;;;;;;;7.24;69.60;99574.31;1768597;81;21019;-67
2022/05/18 02:26:38;;;;;;;62.33;38.28;;;;;;;7.21;69.85;99583.59;1764124;81;21069;-66
2022/05/18 02:29:05;;;;;;;55.58;36.48;;;;;;;7.21;69.95;99582.78;1742332;82;20986;-66
2022/05/18 02:31:32;;;;;;;62.95;34.73;;;;;;;7.21;70.04;99577.43;1759734;81;21019;-69
2022/05/18 02:33:58;;;;;;;68.65;34.48;;;;;;;7.20;70.25;99574.45;1726486;82;20902;-66
2022/05/18 02:36:26;;;;;;;59.10;33.10;;;;;;;7.20;70.44;99578.47;1728656;81;21098;-66
2022/05/18 02:38:53;;;;;;;55.98;29.02;;;;;;;7.20;70.79;99578.47;1701068;83;21257;-67
2022/05/18 02:41:20;;;;;;;54.30;27.77;;;;;;;7.22;70.97;99571.05;1725708;82;20947;-66
2022/05/18 02:43:46;;;;;;;38.78;24.47;;;;;;;7.23;71.14;99572.16;1739929;82;21039;-66
2022/05/18 02:46:16;;;;;;;46.45;28.52;;;;;;;7.25;71.11;99570.56;1749693;81;21591;-66
2022/05/18 02:48:42;;;;;;;44.35;26.73;;;;;;;7.26;71.17;99580.23;1752679;81;21066;-69
2022/05/18 02:51:10;;;;;;;37.20;22.00;;;;;;;7.26;71.52;99578.89;1700779;81;21097;-67
2022/05/18 02:53:36;;;;;;;44.25;21.37;;;;;;;7.24;72.07;99583.67;1754720;81;20990;-66
2022/05/18 02:56:09;;;;;;;31.23;19.45;;;;;;;7.24;72.21;99579.66;1735712;81;21023;-66
2022/05/18 02:58:45;;;;;;;35.05;18.35;;;;;;;7.23;72.56;99582.04;1725685;82;21046;-65
2022/05/18 03:01:20;;;;;;;30.50;18.50;;;;;;;7.22;73.12;99583.89;1725762;81;21011;-66
2022/05/18 03:03:48;;;;;;;29.32;16.30;;;;;;;7.23;73.18;99591.41;1763604;81;22072;-64
2022/05/18 03:06:16;;;;;;;24.10;16.17;;;;;;;7.24;73.72;99589.02;1738996;81;21580;-65
2022/05/18 03:08:46;;;;;;;24.80;15.63;;;;;;;7.22;73.85;99587.91;1742285;82;20982;-65
2022/05/18 03:11:13;;;;;;;29.15;15.90;;;;;;;7.23;73.91;99600.77;1740580;82;21034;-65
2022/05/18 03:13:41;;;;;;;20.43;12.65;;;;;;;7.22;74.16;99603.14;1769480;80;20947;-66
2022/05/18 03:16:08;;;;;;;21.82;12.70;;;;;;;7.19;74.36;99596.41;1744359;81;21511;-65
2022/05/18 03:18:35;;;;;;;20.68;10.70;;;;;;;7.17;74.56;99594.98;1751408;81;20965;-63
2022/05/18 03:23:47;;;;;;;18.95;10.45;;;;;;;7.14;75.09;99604.81;1747846;80;20966;-64
2022/05/18 03:26:17;;;;;;;21.60;10.55;;;;;;;7.14;75.31;99598.95;1767142;81;21480;-64
2022/05/18 03:28:46;;;;;;;22.13;12.90;;;;;;;7.13;75.64;99617.38;1773069;80;21235;-63
2022/05/18 03:31:13;;;;;;;20.25;11.90;;;;;;;7.14;75.89;99620.86;1772767;80;21071;-64
2022/05/18 03:33:39;;;;;;;22.10;12.03;;;;;;;7.12;75.91;99605.03;1773031;81;21014;-63
2022/05/18 03:36:08;;;;;;;22.07;12.75;;;;;;;7.11;76.04;99616.77;1772576;81;21371;-62
2022/05/18 03:38:34;;;;;;;29.12;14.85;;;;;;;7.11;76.18;99604.73;1749043;80;21540;-64
2022/05/18 03:41:01;;;;;;;22.40;13.45;;;;;;;7.13;76.15;99612.55;1742218;82;21058;-64
2022/05/18 03:43:28;;;;;;;23.35;15.10;;;;;;;7.15;76.48;99619.27;1771148;80;21055;-64
2022/05/18 03:45:55;;;;;;;21.17;14.95;;;;;;;7.18;76.57;99616.69;1781444;80;20962;-63
2022/05/18 03:48:22;;;;;;;29.92;17.00;;;;;;;7.22;76.60;99614.66;1781666;80;20981;-65
2022/05/18 03:50:49;;;;;;;28.55;13.72;;;;;;;7.25;76.61;99616.86;1784799;80;21038;-64
2022/05/18 03:53:16;;;;;;;27.15;16.45;;;;;;;7.30;76.60;99622.86;1781467;80;21240;-63
2022/05/18 03:55:43;;;;;;;25.85;15.13;;;;;;;7.30;76.92;99622.34;1781359;80;21078;-67
2022/05/18 03:58:13;;;;;;;25.55;17.10;;;;;;;7.31;76.94;99623.16;1785064;80;20923;-64
2022/05/18 04:00:42;;;;;;;30.57;18.87;;;;;;;7.33;77.13;99627.77;1781417;80;21548;-65
2022/05/18 04:03:09;;;;;;;30.80;18.32;;;;;;;7.35;77.21;99622.98;1757712;80;21026;-63
2022/05/18 04:05:38;;;;;;;47.55;20.52;;;;;;;7.37;77.36;99635.09;1749088;80;21094;-64
2022/05/18 04:08:06;;;;;;;32.00;17.90;;;;;;;7.36;77.58;99641.48;1781338;80;21021;-63
2022/05/18 04:10:33;;;;;;;37.63;19.17;;;;;;;7.36;77.76;99639.33;1781711;80;20963;-65
2022/05/18 04:13:01;;;;;;;33.08;19.67;;;;;;;7.38;77.84;99638.59;1774270;80;21525;-63
2022/05/18 04:15:27;;;;;;;34.78;21.20;;;;;;;7.39;77.69;99626.30;1750559;81;20985;-63
2022/05/18 04:17:55;;;;;;;41.08;23.55;;;;;;;7.42;77.92;99634.41;1739828;80;21048;-64
2022/05/18 04:20:23;;;;;;;49.03;24.10;;;;;;;7.47;77.83;99632.38;1742096;80;21082;-63
2022/05/18 04:22:50;;;;;;;45.75;25.12;;;;;;;7.51;77.88;99631.68;1755923;80;20905;-64
2022/05/18 04:25:23;;;;;;;33.90;21.37;;;;;;;7.53;77.97;99638.15;1763987;81;21599;-64
2022/05/18 04:27:50;;;;;;;57.80;32.67;;;;;;;7.58;77.93;99640.40;1781510;80;21030;-65
2022/05/18 04:30:18;;;;;;;77.87;40.75;;;;;;;7.61;77.70;99639.95;1781393;80;21138;-64
2022/05/18 04:32:46;;;;;;;78.70;43.52;;;;;;;7.66;77.53;99641.41;1775199;80;21018;-64
2022/05/18 04:35:15;;;;;;;69.87;41.10;;;;;;;7.72;77.33;99649.83;1756352;80;20963;-63
2022/05/18 04:37:42;;;;;;;69.22;39.98;;;;;;;7.79;77.05;99647.05;1750299;82;21414;-64
2022/05/18 04:40:09;;;;;;;71.55;39.63;;;;;;;7.81;76.72;99651.14;1748999;82;21050;-64
2022/05/18 04:42:36;;;;;;;63.35;38.13;;;;;;;7.82;76.76;99638.55;1780821;80;21778;-64
2022/05/18 04:45:08;;;;;;;56.95;35.50;;;;;;;7.84;76.73;99646.66;1769558;80;20996;-65
2022/05/18 04:47:34;;;;;;;49.38;31.35;;;;;;;7.91;76.56;99636.36;1767545;80;21043;-65
2022/05/18 04:50:01;;;;;;;64.37;31.80;;;;;;;7.95;76.41;99636.99;1769970;81;21070;-64
2022/05/18 04:52:28;;;;;;;55.03;32.40;;;;;;;7.98;76.41;99650.42;1732894;82;21093;-63
2022/05/18 04:54:56;;;;;;;62.60;35.33;;;;;;;8.02;76.32;99656.42;1755733;81;21143;-65
2022/05/18 04:57:23;;;;;;;58.75;33.28;;;;;;;8.07;76.26;99648.50;1755567;81;21007;-65
2022/05/18 04:59:50;;;;;;;79.80;44.38;;;;;;;8.13;76.28;99648.09;1755712;81;21481;-66
2022/05/18 05:02:16;;;;;;;73.07;43.08;;;;;;;8.17;75.94;99653.26;1754834;81;20994;-62
2022/05/18 05:04:44;;;;;;;71.40;39.80;;;;;;;8.14;76.02;99657.76;1749704;82;21060;-65
2022/05/18 05:07:11;;;;;;;61.65;34.23;;;;;;;8.09;76.25;99651.77;1754851;80;21117;-64
2022/05/18 05:09:38;;;;;;;63.68;36.17;;;;;;;8.12;76.38;99651.81;1755092;81;20992;-64
2022/05/18 05:12:07;;;;;;;56.30;37.93;;;;;;;8.11;76.42;99660.89;1755253;81;21058;-65
2022/05/18 05:14:39;;;;;;;57.55;36.63;;;;;;;8.11;76.51;99663.56;1730253;81;20994;-64
2022/05/18 05:17:07;;;;;;;63.02;35.80;;;;;;;8.11;76.58;99654.19;1755628;81;21071;-65
2022/05/18 05:19:37;;;;;;;52.33;28.12;;;;;;;8.07;76.75;99665.09;1755762;81;21176;-64
2022/05/18 05:22:05;;;;;;;56.58;31.65;;;;;;;8.05;76.89;99664.52;1739269;81;21499;-64
2022/05/18 05:24:32;;;;;;;49.73;26.17;;;;;;;8.04;76.96;99665.56;1748971;81;21045;-65
2022/05/18 05:26:58;;;;;;;46.75;24.98;;;;;;;8.07;77.03;99672.60;1749745;81;21468;-64
2022/05/18 05:29:25;;;;;;;45.12;25.23;;;;;;;8.10;77.18;99675.35;1773106;81;21543;-64
2022/05/18 05:31:52;;;;;;;46.75;23.25;;;;;;;8.10;77.16;99668.14;1750333;80;21252;-63
2022/05/18 05:34:18;;;;;;;44.45;22.67;;;;;;;8.09;77.51;99675.05;1769927;81;20947;-63
2022/05/18 05:36:44;;;;;;;45.98;25.90;;;;;;;8.07;77.40;99675.28;1765944;81;20987;-64
2022/05/18 05:39:11;;;;;;;36.68;21.42;;;;;;;8.05;77.67;99670.70;1719562;83;21124;-63
2022/05/18 05:41:37;;;;;;;37.42;21.12;;;;;;;8.06;77.95;99679.52;1727568;82;21472;-65
2022/05/18 05:44:06;;;;;;;40.23;23.95;;;;;;;8.08;77.82;99676.92;1768825;80;21227;-65
2022/05/18 05:46:32;;;;;;;33.18;19.90;;;;;;;8.10;77.90;99677.51;1774367;80;20950;-66
2022/05/18 05:48:59;;;;;;;31.30;19.00;;;;;;;8.18;77.94;99684.36;1750876;81;20992;-64
2022/05/18 05:51:27;;;;;;;36.95;20.23;;;;;;;8.22;77.76;99685.00;1758337;80;20956;-64
2022/05/18 05:53:54;;;;;;;34.18;21.48;;;;;;;8.25;77.57;99685.04;1758246;81;21063;-64
2022/05/18 05:56:21;;;;;;;33.28;22.05;;;;;;;8.23;77.68;99679.12;1749682;80;21136;-65
2022/05/18 05:58:48;;;;;;;34.38;23.35;;;;;;;8.20;77.69;99677.70;1750506;80;20977;-63
2022/05/18 06:01:15;;;;;;;34.50;23.42;;;;;;;8.20;77.74;99693.78;1774392;80;21051;-65
2022/05/18 06:03:42;;;;;;;32.42;18.73;;;;;;;8.23;77.73;99689.84;1772290;80;21033;-64
2022/05/18 06:06:10;;;;;;;34.95;22.05;;;;;;;8.25;77.84;99679.16;1762321;80;21005;-65
2022/05/18 06:08:39;;;;;;;34.55;21.07;;;;;;;8.30;77.68;99689.20;1763532;80;21146;-63
2022/05/18 06:11:06;;;;;;;45.70;28.40;;;;;;;8.34;77.66;99689.57;1761010;80;21000;-66
2022/05/18 06:13:33;;;;;;;46.30;22.40;;;;;;;8.32;77.58;99699.17;1765966;80;22485;-62
2022/05/18 06:16:01;;;;;;;42.30;25.85;;;;;;;8.26;77.92;99693.38;1736494;82;20958;-62
2022/05/18 06:18:29;;;;;;;67.65;30.65;;;;;;;8.25;77.84;99699.77;1750596;81;22175;-66
2022/05/18 06:20:58;;;;;;;52.15;26.68;;;;;;;8.27;78.05;99707.06;1729856;82;21279;-64
2022/05/18 06:23:25;;;;;;;47.25;31.02;;;;;;;8.33;78.06;99705.35;1750435;81;21523;-62
2022/05/18 06:25:52;;;;;;;49.08;28.40;;;;;;;8.37;78.04;99718.05;1750614;82;20934;-62
2022/05/18 06:28:18;;;;;;;54.50;31.93;;;;;;;8.39;77.93;99715.14;1756464;80;21031;-64
2022/05/18 06:30:45;;;;;;;55.50;32.60;;;;;;;8.40;77.95;99712.72;1781525;80;21019;-64
2022/05/18 06:33:12;;;;;;;62.55;31.20;;;;;;;8.43;77.88;99721.66;1770460;80;21144;-64
2022/05/18 06:35:39;;;;;;;57.43;30.77;;;;;;;8.44;77.79;99726.77;1759522;80;21034;-62
2022/05/18 06:38:12;;;;;;;52.85;31.85;;;;;;;8.41;77.84;99723.22;1777169;80;21029;-62
2022/05/18 06:43:26;;;;;;;54.15;31.75;;;;;;;8.45;77.91;99720.36;1760190;80;21081;-62
2022/05/18 06:45:53;;;;;;;41.48;25.68;;;;;;;8.46;77.93;99738.08;1757469;80;21085;-65
2022/05/18 06:48:19;;;;;;;46.02;27.10;;;;;;;8.46;78.10;99732.71;1742289;82;21057;-64
2022/05/18 06:50:47;;;;;;;42.20;26.02;;;;;;;8.48;78.11;99731.97;1741292;82;21019;-65
2022/05/18 06:53:13;;;;;;;40.30;24.20;;;;;;;8.50;78.04;99734.39;1734501;81;21065;-63
2022/05/18 06:55:40;;;;;;;43.15;21.40;;;;;;;8.50;77.95;99727.17;1742031;82;21040;-66
2022/05/18 06:58:06;;;;;;;40.35;21.05;;;;;;;8.50;77.96;99723.67;1712736;83;21922;-63
2022/05/18 07:00:34;;;;;;;35.68;22.20;;;;;;;8.50;78.13;99737.89;1712737;82;20989;-63
2022/05/18 07:03:00;;;;;;;40.98;22.62;;;;;;;8.54;78.11;99732.34;1705469;82;21044;-63
2022/05/18 07:05:27;;;;;;;32.05;18.70;;;;;;;8.57;78.28;99729.73;1725404;83;21573;-65
2022/05/18 07:07:53;;;;;;;33.73;18.82;;;;;;;8.61;78.17;99737.07;1728177;81;21021;-64
2022/05/18 07:10:22;;;;;;;27.32;16.45;;;;;;;8.70;78.02;99731.63;1746220;81;21903;-64
2022/05/18 07:12:49;;;;;;;29.55;16.15;;;;;;;8.79;77.83;99728.56;1724172;81;20986;-61
2022/05/18 07:15:16;;;;;;;27.90;15.23;;;;;;;8.81;77.58;99729.16;1734681;81;21622;-64
2022/05/18 07:17:43;;;;;;;14.73;9.63;;;;;;;8.87;77.70;99734.92;1755708;81;21261;-63
2022/05/18 07:20:11;;;;;;;17.37;8.43;;;;;;;8.91;77.12;99732.05;1772529;80;21571;-65
2022/05/18 07:22:39;;;;;;;17.45;10.68;;;;;;;8.95;76.86;99742.06;1748014;81;20924;-62
2022/05/18 07:25:07;;;;;;;16.60;10.18;;;;;;;9.00;77.33;99745.38;1773175;81;20931;-64
2022/05/18 07:27:34;;;;;;;25.15;13.18;;;;;;;9.02;77.99;99749.43;1764617;81;21030;-65
2022/05/18 07:30:03;;;;;;;19.55;12.20;;;;;;;9.04;78.58;99751.36;1760166;81;20955;-65
2022/05/18 07:32:30;;;;;;;21.70;11.73;;;;;;;9.07;79.49;99754.08;1741870;81;21002;-63
2022/05/18 07:34:56;;;;;;;9.83;6.20;;;;;;;9.10;80.21;99757.13;1772973;81;21229;-62
2022/05/18 07:37:23;;;;;;;7.58;5.62;;;;;;;9.02;81.04;99758.00;1758987;81;21008;-66
2022/05/18 07:39:50;;;;;;;12.18;7.75;;;;;;;8.91;81.28;99757.00;1741484;81;20984;-66
2022/05/18 07:42:16;;;;;;;7.58;6.17;;;;;;;8.97;82.44;99765.98;1736844;82;21500;-65
2022/05/18 07:44:43;;;;;;;6.45;4.45;;;;;;;9.01;81.94;99766.61;1736020;81;21063;-62
2022/05/18 07:47:09;;;;;;;8.55;4.90;;;;;;;9.06;81.59;99769.39;1742593;82;21738;-69
2022/05/18 07:49:39;;;;;;;5.62;3.55;;;;;;;9.08;82.06;99756.53;1741779;82;20943;-64
2022/05/18 07:52:07;;;;;;;7.75;4.60;;;;;;;9.10;81.70;99766.52;1748912;80;21030;-65
2022/05/18 07:54:33;;;;;;;4.20;3.25;;;;;;;9.15;82.00;99769.83;1719727;82;21027;-67
2022/05/18 07:57:06;;;;;;;3.52;2.98;;;;;;;9.20;82.58;99773.95;1718285;82;20999;-66
2022/05/18 07:59:32;;;;;;;7.35;4.08;;;;;;;9.27;82.85;99777.81;1733821;82;21097;-64
2022/05/18 08:01:59;;;;;;;3.45;1.70;;;;;;;9.31;83.13;99781.13;1720546;83;20908;-62
2022/05/18 08:04:25;;;;;;;2.75;2.42;;;;;;;9.29;82.62;99777.06;1720453;82;21091;-65
2022/05/18 08:06:52;;;;;;;2.98;2.33;;;;;;;9.30;83.80;99776.84;1720828;83;21067;-65
2022/05/18 08:09:22;;;;;;;2.15;1.70;;;;;;;9.29;83.95;99774.38;1720947;83;21514;-64
2022/05/18 08:17:17;;;;;;;4.15;1.30;;;;;;;9.32;84.59;99784.62;1721173;83;21000;-64
2022/05/18 08:19:44;;;;;;;1.87;1.77;;;;;;;9.39;84.66;99775.39;1720116;83;21560;-61
2022/05/18 08:22:13;;;;;;;2.62;2.20;;;;;;;9.42;84.39;99782.95;1709648;83;21557;-69
2022/05/18 08:24:40;;;;;;;2.15;2.02;;;;;;;9.47;84.54;99790.29;1713880;83;21565;-65
2022/05/18 08:27:13;;;;;;;3.10;1.85;;;;;;;9.46;84.60;99788.66;1738032;82;21013;-64
2022/05/18 08:29:40;;;;;;;2.90;1.80;;;;;;;9.43;84.43;99784.59;1730822;81;21048;-65
2022/05/18 08:32:08;;;;;;;1.37;1.27;;;;;;;9.39;85.02;99789.34;1722381;81;20972;-65
2022/05/18 08:34:35;;;;;;;3.72;1.42;;;;;;;9.32;85.19;99793.49;1719255;83;21461;-66
2022/05/18 08:37:02;;;;;;;1.70;1.60;;;;;;;9.26;85.32;99789.08;1719323;83;21157;-66
2022/05/18 08:39:28;;;;;;;4.12;2.02;;;;;;;9.26;85.94;99784.23;1719213;83;21559;-63
2022/05/18 08:41:54;;;;;;;5.87;3.15;;;;;;;9.25;86.16;99786.13;1719375;82;21009;-66
2022/05/18 08:44:30;;;;;;;4.05;2.98;;;;;;;9.30;86.74;99788.09;1717324;82;21047;-67
2022/05/18 08:47:39;;;;;;;2.47;2.10;;;;;;;9.38;87.60;99788.52;1748902;81;20995;-62
2022/05/18 08:50:18;;;;;;;2.80;2.27;;;;;;;9.48;88.32;99786.03;1749214;81;21146;-63
2022/05/18 08:53:22;;;;;;;4.12;2.05;;;;;;;9.59;89.41;99791.06;1764095;81;20975;-66
2022/05/18 08:56:08;;;;;;;1.80;1.60;;;;;;;9.62;89.67;99789.23;1764280;81;21070;-64
2022/05/18 08:58:49;;;;;;;1.67;1.57;;;;;;;9.64;90.04;99797.84;1758059;81;21057;-66
2022/05/18 09:01:28;;;;;;;8.13;3.08;;;;;;;9.56;90.61;99791.53;1753969;81;21014;-65
2022/05/18 09:04:01;;;;;;;4.47;3.50;;;;;;;9.54;90.81;99793.66;1739395;81;21860;-65
2022/05/18 09:06:54;;;;;;;4.45;2.17;;;;;;;9.51;91.57;99787.41;1735807;81;21719;-68
2022/05/18 09:12:26;;;;;;;4.67;2.37;;;;;;;9.42;92.36;99789.67;1747170;81;20951;-63
2022/05/18 09:14:53;;;;;;;5.67;2.27;;;;;;;9.43;92.81;99794.52;1750725;81;21594;-66
2022/05/18 09:17:44;;;;;;;2.45;1.75;;;;;;;9.42;92.72;99795.03;1762766;81;21148;-65
2022/05/18 09:20:25;;;;;;;3.22;1.60;;;;;;;9.43;93.49;99804.73;1763415;81;21092;-67
2022/05/18 09:23:24;;;;;;;5.33;2.40;;;;;;;9.37;93.58;99793.59;1764136;81;21019;-65
2022/05/18 09:26:02;;;;;;;1.32;1.00;;;;;;;9.34;93.85;99808.84;1760536;81;21066;-64
2022/05/18 09:28:53;;;;;;;1.15;1.02;;;;;;;9.30;94.29;99798.83;1743351;81;21062;-67
2022/05/18 09:31:55;;;;;;;1.72;1.52;;;;;;;9.27;95.09;99806.00;1744838;81;21158;-70
2022/05/18 09:34:39;;;;;;;1.07;1.05;;;;;;;9.29;95.59;99807.41;1721025;82;20973;-63
2022/05/18 09:37:23;;;;;;;1.65;1.42;;;;;;;9.35;96.06;99815.03;1734073;80;21023;-64
2022/05/18 09:40:13;;;;;;;1.40;1.30;;;;;;;9.34;96.19;99812.88;1755652;80;21054;-63
2022/05/18 09:42:54;;;;;;;1.22;1.12;;;;;;;9.32;96.80;99808.78;1742227;81;21042;-64
2022/05/18 09:45:24;;;;;;;2.95;1.82;;;;;;;9.27;97.12;99814.05;1742308;81;21109;-63
2022/05/18 09:48:06;;;;;;;2.65;1.67;;;;;;;9.25;97.71;99817.52;1734160;82;21048;-62
2022/05/18 09:50:35;;;;;;;2.05;1.90;;;;;;;9.25;97.81;99826.91;1758168;80;21540;-65
2022/05/18 09:53:01;;;;;;;1.70;1.60;;;;;;;9.26;98.21;99818.59;1742588;81;21097;-65
2022/05/18 09:55:28;;;;;;;1.70;1.60;;;;;;;9.30;98.58;99833.20;1750550;81;21046;-64
2022/05/18 09:58:05;;;;;;;2.08;1.87;;;;;;;9.38;98.55;99823.41;1766449;80;21073;-64
2022/05/18 10:00:34;;;;;;;2.20;2.10;;;;;;;9.49;98.51;99842.70;1752025;80;21041;-65
2022/05/18 10:08:57;;;;;;;2.17;2.08;;;;;;;9.68;96.45;99835.27;1759844;80;20952;-64
2022/05/18 10:11:28;;;;;;;2.12;2.02;;;;;;;9.73;96.50;99839.92;1769437;80;21140;-62
2022/05/18 10:14:13;;;;;;;4.85;2.17;;;;;;;9.71;96.07;99851.42;1764519;80;21045;-63
2022/05/18 10:16:51;;;;;;;2.45;2.15;;;;;;;9.72;96.22;99830.23;1755717;80;21064;-64
2022/05/18 10:19:30;;;;;;;2.22;2.02;;;;;;;9.66;95.99;99836.55;1763752;80;21052;-66
2022/05/18 10:22:05;;;;;;;2.75;2.55;;;;;;;9.63;95.62;99864.19;1764443;80;21009;-67
2022/05/18 10:24:46;;;;;;;3.25;2.87;;;;;;;9.61;96.30;99877.03;1770313;80;21099;-66
2022/05/18 10:27:21;;;;;;;3.25;2.90;;;;;;;9.56;95.57;99854.63;1763818;80;21379;-66
2022/05/18 10:30:07;;;;;;;3.62;3.02;;;;;;;9.60;95.72;99872.70;1764116;80;20977;-65
2022/05/18 10:32:34;;;;;;;3.50;3.20;;;;;;;9.63;95.79;99861.50;1767132;80;21254;-66
2022/05/18 10:35:01;;;;;;;5.33;3.25;;;;;;;9.60;96.27;99878.08;1766249;80;21139;-66
2022/05/18 10:37:35;;;;;;;3.55;3.15;;;;;;;9.57;97.32;99879.91;1764493;80;21100;-68
2022/05/18 10:40:19;;;;;;;3.05;2.67;;;;;;;9.54;96.49;99884.95;1734860;81;21582;-65
2022/05/18 10:42:48;;;;;;;3.30;3.10;;;;;;;9.51;96.38;99888.91;1720189;81;21015;-67
2022/05/18 10:45:33;;;;;;;3.72;3.35;;;;;;;9.51;96.39;99878.17;1736528;81;21125;-68
2022/05/18 10:48:14;;;;;;;4.85;4.20;;;;;;;9.54;96.31;99880.36;1753286;80;21046;-66
2022/05/18 10:50:41;;;;;;;4.97;3.87;;;;;;;9.55;95.85;99881.19;1750510;80;21255;-65
2022/05/18 10:53:19;;;;;;;7.47;3.05;;;;;;;9.56;96.15;99873.42;1740353;80;21017;-69
2022/05/18 10:56:07;;;;;;;5.10;3.77;;;;;;;9.63;96.15;99895.08;1736029;81;21072;-64
2022/05/18 10:58:39;;;;;;;6.47;3.20;;;;;;;9.70;96.46;99900.29;1742821;80;21054;-64
2022/05/18 11:01:23;;;;;;;4.10;3.58;;;;;;;9.82;96.34;99894.89;1765241;80;21055;-64
2022/05/18 11:03:59;;;;;;;;;;;;;;;9.93;96.02;99890.79;1770016;80;21549;-66
2022/05/18 11:06:30;;;;;;;4.28;3.87;;;;;;;10.04;95.53;99908.73;1763181;80;20101;-65
2022/05/18 11:09:02;;;;;;;3.50;3.05;;;;;;;10.02;93.16;99886.66;1767999;80;20933;-67
2022/05/18 11:11:51;;;;;;;3.85;3.30;;;;;;;10.06;92.47;99904.48;1765929;80;21062;-65
2022/05/18 11:14:47;;;;;;;5.65;3.67;;;;;;;10.07;92.12;99893.46;1770585;80;21048;-65
2022/05/18 11:17:38;;;;;;;7.00;3.67;;;;;;;10.19;91.81;99899.34;1753722;81;21779;-68
2022/05/18 11:20:34;;;;;;;6.33;3.95;;;;;;;10.27;90.53;99901.11;1745768;81;21005;-64
2022/05/18 11:23:40;;;;;;;7.47;3.87;;;;;;;10.34;90.37;99899.62;1753005;80;20933;-66
2022/05/18 11:26:33;;;;;;;3.90;3.30;;;;;;;10.43;90.35;99904.88;1773678;80;21517;-64
2022/05/18 11:29:36;;;;;;;4.55;3.75;;;;;;;10.49;89.99;99908.77;1765101;80;20998;-66
2022/05/18 11:32:08;;;;;;;7.65;3.50;;;;;;;10.57;90.12;99914.78;1776709;80;21429;-64
2022/05/18 11:35:01;;;;;;;3.58;3.27;;;;;;;10.62;89.28;99918.91;1749087;81;20948;-68
2022/05/18 11:37:52;;;;;;;3.47;3.17;;;;;;;10.63;89.09;99929.95;1749822;81;21608;-67
2022/05/18 11:40:44;;;;;;;3.47;3.17;;;;;;;10.62;89.26;99926.45;1763022;81;21026;-65
2022/05/18 11:43:30;;;;;;;4.33;3.95;;;;;;;10.61;89.04;99940.95;1763870;81;21094;-66
2022/05/18 11:46:07;;;;;;;5.30;3.90;;;;;;;10.53;88.72;99948.61;1753433;81;21146;-66
2022/05/18 11:49:09;;;;;;;3.80;3.50;;;;;;;10.50;88.48;99947.23;1740545;82;21038;-65
2022/05/18 11:52:17;;;;;;;3.05;2.75;;;;;;;10.45;88.65;99946.59;1745934;81;20988;-68
2022/05/18 11:55:31;;;;;;;5.20;4.55;;;;;;;10.38;87.74;99939.22;1747463;82;21039;-66
2022/05/18 11:58:44;;;;;;;5.12;4.47;;;;;;;10.38;87.92;99955.34;1742893;82;21069;-64
2022/05/18 12:01:04;;;;;;;4.25;3.83;;;;;;;10.35;87.52;99943.75;1723570;82;21603;-65
2022/05/18 12:03:47;;;;;;;4.95;4.17;;;;;;;10.39;88.07;99939.51;1734252;81;20923;-67
2022/05/18 12:06:39;;;;;;;;;;;;;;;10.41;88.09;99949.48;1737121;81;21003;-71
2022/05/18 12:09:32;;;;;;;3.80;3.50;;;;;;;10.44;87.84;99971.05;1735312;82;20449;-70
2022/05/18 12:12:07;;;;;;;4.10;3.80;;;;;;;10.34;87.41;99965.48;1734608;81;21552;-67
2022/05/18 12:15:04;;;;;;;3.67;3.40;;;;;;;10.32;88.17;99967.06;1726291;82;21246;-68